createdAt,value
2023-04-04T00:00:40.626Z,82.10
2023-04-04T00:03:07.989Z,81.80
2023-04-04T00:05:36.208Z,82.20
2023-04-04T00:08:03.978Z,82.00
2023-04-04T00:10:31.314Z,82.30
2023-04-04T00:12:59.087Z,82.80
2023-04-04T00:15:26.367Z,83.00
2023-04-04T00:17:53.488Z,83.60
2023-04-04T00:20:20.653Z,84.00
2023-04-04T00:22:47.753Z,84.20
2023-04-04T00:25:15.286Z,84.90
2023-04-04T00:27:42.405Z,84.60
2023-04-04T00:30:09.780Z,85.30
2023-04-04T00:32:36.940Z,85.10
2023-04-04T00:35:04.192Z,85.50
2023-04-04T00:37:31.319Z,85.80
2023-04-04T00:39:58.405Z,85.20
2023-04-04T00:42:25.599Z,85.40
2023-04-04T00:44:52.744Z,85.70
2023-04-04T00:47:22.598Z,85.70
2023-04-04T00:49:49.733Z,85.50
2023-04-04T00:52:17.127Z,85.40
2023-04-04T00:54:44.410Z,85.80
2023-04-04T00:57:11.855Z,85.80
2023-04-04T00:59:39.071Z,86.40
2023-04-04T01:02:06.332Z,86.50
2023-04-04T01:04:33.530Z,86.40
2023-04-04T01:07:01.129Z,86.30
2023-04-04T01:09:28.475Z,86.70
2023-04-04T01:11:57.313Z,87.20
2023-04-04T01:14:25.819Z,87.70
2023-04-04T01:16:53.421Z,87.90
2023-04-04T01:19:34.882Z,88.10
2023-04-04T01:22:06.524Z,87.90
2023-04-04T01:24:34.214Z,88.50
2023-04-04T01:27:04.705Z,88.70
2023-04-04T01:29:33.628Z,88.90
2023-04-04T01:32:08.409Z,89.00
2023-04-04T01:35:04.980Z,89.20
2023-04-04T01:37:47.403Z,89.10
2023-04-04T01:40:24.994Z,89.10
2023-04-04T01:42:54.252Z,89.90
2023-04-04T01:45:23.035Z,90.30
2023-04-04T01:47:51.056Z,90.50
2023-04-04T01:50:21.782Z,90.90
2023-04-04T01:52:50.062Z,91.30
2023-04-04T01:55:17.272Z,91.30
2023-04-04T01:57:44.679Z,91.60
2023-04-04T02:00:12.207Z,92.00
2023-04-04T02:02:45.110Z,92.20
2023-04-04T02:05:12.633Z,92.20
2023-04-04T02:07:40.597Z,92.30
2023-04-04T02:10:18.298Z,92.00
2023-04-04T02:12:45.897Z,92.40
2023-04-04T02:15:12.983Z,92.60
2023-04-04T02:17:40.469Z,92.30
2023-04-04T02:20:08.376Z,92.30
2023-04-04T02:22:35.521Z,92.20
2023-04-04T02:25:02.939Z,91.80
2023-04-04T02:27:30.020Z,91.60
2023-04-04T02:29:57.274Z,91.20
2023-04-04T02:32:24.483Z,91.40
2023-04-04T02:34:52.763Z,91.10
2023-04-04T02:37:20.136Z,90.80
2023-04-04T02:39:50.094Z,90.80
2023-04-04T02:42:17.166Z,90.80
2023-04-04T02:44:44.791Z,90.80
2023-04-04T02:47:16.858Z,90.80
2023-04-04T02:49:45.379Z,91.00
2023-04-04T02:52:13.708Z,91.00
2023-04-04T02:54:44.806Z,90.80
2023-04-04T02:57:14.537Z,90.30
2023-04-04T02:59:41.866Z,90.00
2023-04-04T03:02:09.161Z,90.00
2023-04-04T03:04:36.781Z,88.20
2023-04-04T03:07:03.900Z,88.30
2023-04-04T03:09:31.042Z,89.10
2023-04-04T03:11:58.168Z,89.60
2023-04-04T03:14:26.720Z,89.10
2023-04-04T03:16:54.974Z,88.80
2023-04-04T03:19:22.154Z,88.60
2023-04-04T03:21:51.978Z,88.20
2023-04-04T03:24:19.629Z,88.00
2023-04-04T03:26:47.079Z,87.60
2023-04-04T03:29:14.219Z,87.30
2023-04-04T03:31:41.787Z,86.70
2023-04-04T03:34:09.401Z,86.50
2023-04-04T03:36:36.448Z,87.20
2023-04-04T03:39:03.612Z,87.10
2023-04-04T03:41:31.052Z,86.90
2023-04-04T03:43:58.143Z,86.70
2023-04-04T03:46:25.567Z,86.60
2023-04-04T03:48:52.688Z,86.50
2023-04-04T03:51:27.476Z,86.30
2023-04-04T03:53:54.841Z,86.80
2023-04-04T03:56:21.969Z,86.70
2023-04-04T03:58:49.242Z,87.40
2023-04-04T04:01:20.252Z,87.00
2023-04-04T04:03:47.795Z,85.30
2023-04-04T04:06:15.108Z,85.60
2023-04-04T04:08:42.197Z,85.40
2023-04-04T04:11:09.312Z,83.90
2023-04-04T04:13:37.866Z,84.10
2023-04-04T04:16:05.705Z,84.50
2023-04-04T04:18:33.734Z,83.60
2023-04-04T04:21:02.692Z,82.70
2023-04-04T04:23:30.851Z,82.40
2023-04-04T04:25:58.089Z,82.50
2023-04-04T04:28:33.196Z,81.60
2023-04-04T04:31:05.367Z,81.10
2023-04-04T04:33:32.647Z,80.20
2023-04-04T04:36:04.249Z,79.30
2023-04-04T04:38:40.595Z,79.40
2023-04-04T04:41:07.878Z,77.50
2023-04-04T04:43:42.409Z,77.20
2023-04-04T04:46:09.499Z,76.00
2023-04-04T04:48:37.270Z,75.40
2023-04-04T04:51:05.832Z,74.30
2023-04-04T04:53:41.989Z,73.50
2023-04-04T04:56:09.131Z,72.70
2023-04-04T04:58:39.598Z,72.50
2023-04-04T05:01:10.242Z,72.90
2023-04-04T05:03:39.820Z,72.80
2023-04-04T05:06:12.540Z,72.10
2023-04-04T05:08:39.628Z,70.90
2023-04-04T05:11:18.602Z,71.50
2023-04-04T05:13:45.744Z,71.80
2023-04-04T05:16:13.946Z,71.30
2023-04-04T05:18:44.332Z,71.20
2023-04-04T05:21:12.046Z,70.30
2023-04-04T05:23:39.341Z,69.20
2023-04-04T05:26:07.764Z,69.10
2023-04-04T05:28:37.858Z,69.20
2023-04-04T05:31:08.391Z,69.20
2023-04-04T05:33:36.784Z,69.70
2023-04-04T05:36:14.694Z,68.60
2023-04-04T05:38:47.819Z,68.70
2023-04-04T05:41:18.326Z,67.70
2023-04-04T05:43:46.531Z,68.80
2023-04-04T05:46:16.778Z,68.80
2023-04-04T05:48:50.789Z,68.80
2023-04-04T05:51:18.516Z,67.50
2023-04-04T05:54:20.998Z,68.00
2023-04-04T05:56:48.223Z,67.90
2023-04-04T05:59:33.708Z,68.30
2023-04-04T06:02:04.227Z,68.10
2023-04-04T06:04:32.504Z,69.40
2023-04-04T06:07:02.200Z,68.60
2023-04-04T06:09:29.307Z,68.00
2023-04-04T06:11:57.050Z,66.90
2023-04-04T06:14:24.288Z,67.30
2023-04-04T06:16:51.907Z,68.20
2023-04-04T06:19:21.386Z,69.40
2023-04-04T06:21:48.983Z,68.20
2023-04-04T06:24:16.219Z,66.80
2023-04-04T06:26:43.909Z,67.80
2023-04-04T06:29:11.634Z,66.00
2023-04-04T06:31:40.692Z,67.50
2023-04-04T06:34:12.248Z,65.20
2023-04-04T06:36:51.743Z,67.70
2023-04-04T06:39:19.276Z,65.50
2023-04-04T06:41:48.492Z,65.90
2023-04-04T06:44:16.015Z,65.20
2023-04-04T06:46:43.188Z,64.30
2023-04-04T06:49:10.634Z,63.70
2023-04-04T06:51:37.932Z,63.30
2023-04-04T06:54:05.078Z,62.90
2023-04-04T06:56:33.451Z,61.30
2023-04-04T06:59:00.595Z,60.80
2023-04-04T07:01:27.732Z,59.50
2023-04-04T07:03:54.859Z,55.30
2023-04-04T07:06:25.741Z,53.70
2023-04-04T07:08:55.872Z,52.60
2023-04-04T07:11:27.088Z,50.70
2023-04-04T07:13:54.418Z,48.00
2023-04-04T07:16:21.792Z,47.00
2023-04-04T07:18:49.041Z,47.20
2023-04-04T07:21:17.450Z,45.80
2023-04-04T07:23:44.551Z,46.50
2023-04-04T07:26:11.820Z,44.90
2023-04-04T07:28:38.880Z,44.20
2023-04-04T07:31:06.128Z,43.00
2023-04-04T07:33:33.211Z,43.70
2023-04-04T07:36:03.634Z,43.90
2023-04-04T07:38:31.220Z,42.60
2023-04-04T07:40:58.286Z,42.00
2023-04-04T07:43:25.341Z,41.90
2023-04-04T07:45:54.128Z,42.70
2023-04-04T07:48:22.893Z,42.40
2023-04-04T07:50:50.162Z,41.60
2023-04-04T07:53:17.295Z,40.40
2023-04-04T07:55:44.340Z,39.80
2023-04-04T07:58:11.597Z,39.50
2023-04-04T08:00:38.975Z,38.90
2023-04-04T08:03:06.794Z,39.10
2023-04-04T08:05:33.988Z,40.40
2023-04-04T08:08:01.366Z,38.70
2023-04-04T08:10:28.415Z,38.40
2023-04-04T08:12:55.606Z,39.80
2023-04-04T08:15:22.697Z,39.10
2023-04-04T08:17:50.303Z,38.50
2023-04-04T08:20:17.640Z,38.50
2023-04-04T08:22:44.765Z,40.50
2023-04-04T08:25:11.924Z,46.30
2023-04-04T08:27:44.071Z,44.60
2023-04-04T08:30:12.760Z,41.60
2023-04-04T08:32:40.989Z,39.30
2023-04-04T08:35:08.648Z,37.50
2023-04-04T08:37:39.607Z,36.70
2023-04-04T08:40:07.081Z,35.90
2023-04-04T08:42:36.709Z,36.60
2023-04-04T08:45:04.550Z,37.30
2023-04-04T08:47:31.995Z,36.00
2023-04-04T08:50:06.646Z,36.30
2023-04-04T08:52:34.666Z,38.00
2023-04-04T08:55:05.445Z,37.30
2023-04-04T08:57:33.474Z,37.40
2023-04-04T09:00:00.794Z,37.90
2023-04-04T09:02:42.945Z,36.20
2023-04-04T09:05:10.881Z,36.30
2023-04-04T09:07:39.492Z,37.40
2023-04-04T09:10:11.732Z,36.90
2023-04-04T09:12:42.697Z,37.30
2023-04-04T09:15:10.516Z,38.50
2023-04-04T09:17:37.892Z,37.60
2023-04-04T09:20:25.055Z,36.80
2023-04-04T09:22:52.319Z,38.10
2023-04-04T09:25:19.381Z,38.30
2023-04-04T09:27:49.170Z,37.30
2023-04-04T09:30:16.958Z,36.20
2023-04-04T09:32:44.320Z,37.70
2023-04-04T09:35:13.914Z,38.40
2023-04-04T09:37:41.526Z,37.90
2023-04-04T09:40:09.785Z,38.80
2023-04-04T09:42:37.043Z,40.00
2023-04-04T09:45:04.630Z,40.90
2023-04-04T09:47:33.468Z,42.00
2023-04-04T09:50:01.393Z,43.10
2023-04-04T09:52:31.702Z,43.80
2023-04-04T09:55:02.620Z,44.00
2023-04-04T09:57:34.389Z,43.20
2023-04-04T10:00:04.184Z,44.30
2023-04-04T10:02:37.304Z,43.90
2023-04-04T10:05:06.513Z,43.00
2023-04-04T10:07:38.059Z,43.50
2023-04-04T10:10:06.529Z,42.90
2023-04-04T10:12:33.800Z,43.00
2023-04-04T10:15:01.160Z,42.60
2023-04-04T10:17:36.314Z,43.90
2023-04-04T10:20:07.214Z,43.90
2023-04-04T10:22:35.675Z,43.90
2023-04-04T10:25:03.551Z,44.30
2023-04-04T10:27:30.612Z,44.40
2023-04-04T10:30:16.633Z,43.60
2023-04-04T10:32:50.118Z,43.20
2023-04-04T10:35:17.722Z,41.60
2023-04-04T10:37:49.637Z,39.30
2023-04-04T10:40:17.373Z,38.50
2023-04-04T10:42:47.224Z,38.30
2023-04-04T10:45:21.207Z,37.20
2023-04-04T10:47:49.169Z,36.90
2023-04-04T10:50:16.386Z,36.90
2023-04-04T10:52:44.300Z,38.20
2023-04-04T10:55:13.048Z,37.60
2023-04-04T10:57:52.520Z,38.10
2023-04-04T11:00:20.358Z,40.00
2023-04-04T11:02:57.997Z,40.50
2023-04-04T11:05:31.936Z,41.60
2023-04-04T11:08:08.311Z,43.00
2023-04-04T11:10:43.653Z,43.60
2023-04-04T11:13:14.383Z,44.50
2023-04-04T11:16:00.981Z,45.10
2023-04-04T11:18:40.336Z,44.20
2023-04-04T11:21:08.532Z,44.60
2023-04-04T11:23:59.114Z,43.90
2023-04-04T11:26:29.060Z,43.90
2023-04-04T11:29:00.588Z,44.20
2023-04-04T11:31:29.351Z,44.20
2023-04-04T11:34:05.917Z,43.50
2023-04-04T11:36:35.936Z,44.40
2023-04-04T11:39:06.062Z,42.90
2023-04-04T11:41:51.979Z,44.10
2023-04-04T11:44:19.888Z,43.20
2023-04-04T11:46:51.259Z,42.50
2023-04-04T11:49:18.659Z,43.00
2023-04-04T11:51:45.946Z,43.30
2023-04-04T11:54:16.672Z,42.50
2023-04-04T11:56:46.778Z,43.80
2023-04-04T11:59:19.333Z,42.90
2023-04-04T12:01:46.715Z,43.30
2023-04-04T12:04:15.168Z,42.40
2023-04-04T12:06:42.804Z,44.60
2023-04-04T12:09:12.381Z,43.80
2023-04-04T12:11:40.339Z,42.90
2023-04-04T12:14:14.939Z,41.30
2023-04-04T12:16:43.136Z,42.80
2023-04-04T12:19:11.158Z,43.50
2023-04-04T12:21:38.398Z,42.00
2023-04-04T12:24:06.226Z,42.60
2023-04-04T12:26:33.591Z,43.30
2023-04-04T12:29:00.930Z,41.90
2023-04-04T12:31:28.389Z,42.70
2023-04-04T12:33:55.613Z,42.60
2023-04-04T12:36:25.458Z,43.40
2023-04-04T12:38:59.709Z,43.30
2023-04-04T12:41:27.750Z,41.90
2023-04-04T12:44:04.402Z,43.20
2023-04-04T12:46:39.696Z,42.60
2023-04-04T12:49:08.226Z,41.60
2023-04-04T12:51:36.032Z,42.20
2023-04-04T12:54:04.718Z,43.30
2023-04-04T12:56:32.153Z,42.90
2023-04-04T12:59:05.554Z,42.80
2023-04-04T13:01:33.306Z,43.50
2023-04-04T13:04:03.022Z,42.90
2023-04-04T13:06:31.168Z,43.60
2023-04-04T13:08:58.828Z,44.20
2023-04-04T13:11:27.570Z,43.60
2023-04-04T13:14:01.969Z,44.20
2023-04-04T13:16:30.601Z,43.50
2023-04-04T13:18:57.718Z,43.30
2023-04-04T13:21:24.961Z,44.70
2023-04-04T13:23:52.368Z,44.20
2023-04-04T13:26:19.527Z,44.10
2023-04-04T13:28:46.656Z,44.30
2023-04-04T13:31:16.017Z,44.80
2023-04-04T13:33:43.266Z,44.50
2023-04-04T13:36:10.736Z,44.40
2023-04-04T13:38:37.945Z,44.50
2023-04-04T13:41:05.215Z,44.90
2023-04-04T13:43:32.297Z,45.10
2023-04-04T13:45:59.452Z,44.60
2023-04-04T13:48:27.147Z,45.10
2023-04-04T13:50:55.317Z,44.40
2023-04-04T13:53:22.817Z,44.70
2023-04-04T13:56:07.667Z,44.80
2023-04-04T13:58:36.974Z,44.90
2023-04-04T14:01:04.511Z,44.90
2023-04-04T14:03:31.898Z,45.40
2023-04-04T14:06:03.847Z,44.90
2023-04-04T14:08:36.995Z,44.80
2023-04-04T14:11:04.243Z,45.60
2023-04-04T14:13:32.610Z,45.60
2023-04-04T14:15:59.705Z,46.20
2023-04-04T14:18:27.189Z,46.30
2023-04-04T14:20:54.389Z,46.10
2023-04-04T14:23:22.186Z,46.60
2023-04-04T14:25:50.806Z,46.70
2023-04-04T14:28:18.078Z,46.00
2023-04-04T14:30:45.202Z,45.60
2023-04-04T14:33:12.386Z,46.00
2023-04-04T14:35:39.761Z,45.00
2023-04-04T14:38:07.105Z,45.20
2023-04-04T14:40:34.182Z,45.40
2023-04-04T14:43:01.738Z,45.50
2023-04-04T14:45:28.836Z,45.00
2023-04-04T14:47:56.115Z,45.30
2023-04-04T14:50:23.284Z,45.60
2023-04-04T14:52:52.793Z,46.00
2023-04-04T14:55:20.651Z,46.40
2023-04-04T14:58:01.189Z,47.20
2023-04-04T15:00:30.361Z,47.70
2023-04-04T15:02:57.704Z,48.50
2023-04-04T15:05:25.218Z,47.30
2023-04-04T15:07:52.320Z,47.90
2023-04-04T15:10:19.527Z,47.60
2023-04-04T15:12:46.598Z,47.80
2023-04-04T15:15:13.792Z,47.10
2023-04-04T15:17:41.375Z,47.90
2023-04-04T15:20:09.580Z,48.10
2023-04-04T15:22:38.507Z,47.30
2023-04-04T15:25:06.199Z,47.10
2023-04-04T15:27:33.540Z,48.50
2023-04-04T15:30:00.859Z,48.80
2023-04-04T15:32:28.000Z,49.90
2023-04-04T15:34:55.657Z,49.90
2023-04-04T15:37:22.712Z,49.20
2023-04-04T15:39:53.617Z,49.30
2023-04-04T15:42:21.360Z,49.70
2023-04-04T15:44:48.568Z,50.50
2023-04-04T15:47:16.015Z,50.90
2023-04-04T15:49:43.188Z,51.40
2023-04-04T15:52:10.596Z,51.20
2023-04-04T15:54:37.780Z,52.00
2023-04-04T15:57:04.852Z,51.90
2023-04-04T15:59:32.337Z,52.50
2023-04-04T16:01:59.914Z,51.80
2023-04-04T16:04:26.984Z,52.80
2023-04-04T16:06:54.117Z,52.60
2023-04-04T16:09:21.385Z,52.30
2023-04-04T16:11:48.662Z,52.80
2023-04-04T16:14:15.826Z,52.20
2023-04-04T16:16:42.989Z,52.80
2023-04-04T16:19:14.137Z,53.50
2023-04-04T16:21:41.828Z,53.40
2023-04-04T16:24:09.363Z,53.20
2023-04-04T16:26:36.479Z,53.50
2023-04-04T16:29:03.573Z,53.60
2023-04-04T16:31:31.334Z,53.50
2023-04-04T16:33:58.852Z,53.40
2023-04-04T16:36:26.310Z,53.60
2023-04-04T16:38:55.018Z,53.80
2023-04-04T16:41:22.126Z,53.60
2023-04-04T16:43:52.601Z,53.40
2023-04-04T16:46:20.251Z,53.30
2023-04-04T16:48:47.386Z,53.70
2023-04-04T16:51:14.557Z,53.20
2023-04-04T16:53:41.663Z,53.90
2023-04-04T16:56:08.934Z,53.70
2023-04-04T16:58:36.145Z,53.80
2023-04-04T17:01:03.369Z,53.70
2023-04-04T17:03:30.812Z,53.80
2023-04-04T17:06:00.341Z,54.10
2023-04-04T17:08:27.807Z,54.10
2023-04-04T17:10:54.892Z,54.10
2023-04-04T17:13:22.401Z,54.80
2023-04-04T17:15:49.527Z,54.20
2023-04-04T17:18:16.992Z,54.90
2023-04-04T17:20:44.220Z,55.10
2023-04-04T17:23:11.350Z,55.10
2023-04-04T17:25:38.416Z,54.80
2023-04-04T17:28:05.991Z,54.70
2023-04-04T17:30:33.132Z,54.90
2023-04-04T17:33:00.312Z,55.30
2023-04-04T17:35:27.666Z,55.60
2023-04-04T17:37:54.802Z,55.50
2023-04-04T17:40:21.888Z,55.40
2023-04-04T17:42:49.221Z,56.20
2023-04-04T17:45:18.527Z,56.10
2023-04-04T17:47:46.412Z,56.30
2023-04-04T17:50:13.702Z,56.20
2023-04-04T17:52:40.880Z,56.50
2023-04-04T17:55:08.766Z,56.80
2023-04-04T17:57:36.050Z,56.30
2023-04-04T18:00:03.576Z,55.80
2023-04-04T18:02:35.632Z,56.20
2023-04-04T18:05:02.874Z,56.00
2023-04-04T18:07:29.928Z,55.70
2023-04-04T18:09:57.067Z,56.70
2023-04-04T18:12:27.034Z,57.10
2023-04-04T18:14:54.242Z,56.90
2023-04-04T18:17:21.511Z,57.00
2023-04-04T18:19:48.688Z,56.90
2023-04-04T18:22:15.939Z,57.70
2023-04-04T18:24:43.010Z,57.40
2023-04-04T18:27:10.438Z,57.70
2023-04-04T18:29:37.551Z,58.60
2023-04-04T18:32:04.677Z,57.70
2023-04-04T18:34:32.044Z,58.30
2023-04-04T18:36:59.234Z,58.90
2023-04-04T18:39:26.471Z,58.70
2023-04-04T18:41:53.660Z,58.70
2023-04-04T18:44:23.681Z,59.00
2023-04-04T18:46:51.017Z,59.30
2023-04-04T18:49:18.185Z,58.80
2023-04-04T18:51:46.193Z,59.00
2023-04-04T18:54:13.349Z,59.30
2023-04-04T18:56:40.474Z,59.50
2023-04-04T18:59:07.998Z,59.60
2023-04-04T19:01:36.033Z,59.50
2023-04-04T19:04:03.899Z,59.70
2023-04-04T19:06:32.066Z,59.60
2023-04-04T19:09:00.750Z,60.10
2023-04-04T19:11:27.934Z,60.30
2023-04-04T19:13:55.088Z,60.20
2023-04-04T19:16:24.209Z,60.00
2023-04-04T19:18:51.824Z,60.10
2023-04-04T19:21:18.976Z,60.00
2023-04-04T19:23:46.506Z,60.60
2023-04-04T19:26:15.117Z,61.10
2023-04-04T19:28:45.477Z,61.10
2023-04-04T19:31:18.974Z,62.50
2023-04-04T19:33:48.093Z,61.60
2023-04-04T19:36:15.526Z,61.50
2023-04-04T19:38:44.291Z,61.60
2023-04-04T19:41:12.501Z,61.60
2023-04-04T19:43:41.141Z,62.30
2023-04-04T19:46:09.527Z,62.00
2023-04-04T19:48:49.605Z,61.60
2023-04-04T19:51:22.958Z,62.50
2023-04-04T19:53:51.220Z,61.70
2023-04-04T19:56:19.193Z,61.00
2023-04-04T19:58:48.380Z,61.00
2023-04-04T20:01:20.691Z,61.10
2023-04-04T20:03:47.990Z,61.20
2023-04-04T20:06:25.169Z,61.10
2023-04-04T20:08:52.287Z,61.70
2023-04-04T20:11:22.637Z,62.00
2023-04-04T20:13:50.560Z,61.90
2023-04-04T20:16:17.935Z,61.90
2023-04-04T20:18:46.168Z,61.80
2023-04-04T20:21:13.270Z,62.10
2023-04-04T20:23:42.038Z,62.20
2023-04-04T20:26:10.234Z,61.90
2023-04-04T20:28:37.384Z,62.30
2023-04-04T20:31:10.247Z,61.60
2023-04-04T20:33:39.897Z,62.20
2023-04-04T20:36:11.308Z,61.50
2023-04-04T20:38:39.527Z,61.30
2023-04-04T20:41:22.207Z,60.90
2023-04-04T20:43:51.673Z,60.90
2023-04-04T20:46:19.787Z,60.90
2023-04-04T20:48:50.684Z,61.10
2023-04-04T20:51:17.709Z,60.90
2023-04-04T20:53:52.275Z,61.40
2023-04-04T20:56:31.260Z,62.10
2023-04-04T20:59:01.414Z,62.30
2023-04-04T21:01:28.589Z,62.30
2023-04-04T21:03:56.658Z,61.90
2023-04-04T21:06:28.017Z,61.90
2023-04-04T21:08:55.519Z,61.90
2023-04-04T21:11:28.839Z,62.00
2023-04-04T21:13:56.528Z,62.70
2023-04-04T21:16:27.268Z,62.10
2023-04-04T21:18:58.920Z,62.20
2023-04-04T21:21:26.620Z,62.70
2023-04-04T21:23:54.558Z,63.10
2023-04-04T21:26:27.699Z,63.30
2023-04-04T21:28:55.378Z,63.40
2023-04-04T21:31:23.888Z,63.10
2023-04-04T21:33:53.706Z,63.50
2023-04-04T21:36:23.674Z,62.90
2023-04-04T21:38:54.564Z,62.20
2023-04-04T21:41:31.815Z,62.60
2023-04-04T21:44:06.670Z,62.60
2023-04-04T21:46:34.690Z,61.90
2023-04-04T21:49:01.978Z,62.00
2023-04-04T21:51:29.233Z,63.60
2023-04-04T21:53:56.473Z,64.80
2023-04-04T21:56:32.740Z,65.80
2023-04-04T21:59:04.161Z,65.50
2023-04-04T22:01:31.626Z,66.20
2023-04-04T22:03:59.305Z,66.30
2023-04-04T22:06:27.854Z,67.00
2023-04-04T22:08:56.132Z,67.50
2023-04-04T22:11:25.897Z,66.70
2023-04-04T22:14:03.080Z,67.20
2023-04-04T22:16:31.080Z,66.80
2023-04-04T22:18:58.763Z,66.40
2023-04-04T22:21:27.846Z,66.50
2023-04-04T22:24:00.602Z,67.10
2023-04-04T22:26:34.136Z,66.10
2023-04-04T22:29:02.846Z,65.90
2023-04-04T22:31:30.498Z,66.00
2023-04-04T22:33:57.766Z,66.60
2023-04-04T22:36:25.234Z,66.60
2023-04-04T22:38:57.573Z,66.30
2023-04-04T22:41:26.395Z,66.10
2023-04-04T22:43:53.467Z,66.40
2023-04-04T22:46:20.598Z,66.70
2023-04-04T22:48:47.720Z,67.00
2023-04-04T22:51:17.712Z,67.10
2023-04-04T22:53:45.784Z,67.20
2023-04-04T22:56:12.995Z,67.30
2023-04-04T22:58:40.249Z,66.90
2023-04-04T23:01:07.408Z,67.00
2023-04-04T23:03:34.575Z,67.00
2023-04-04T23:06:01.646Z,66.90
2023-04-04T23:08:28.754Z,66.60
2023-04-04T23:10:56.247Z,66.80
2023-04-04T23:13:23.487Z,67.20
2023-04-04T23:15:50.704Z,68.30
2023-04-04T23:18:17.867Z,67.80
2023-04-04T23:20:44.963Z,68.80
2023-04-04T23:23:12.087Z,69.50
2023-04-04T23:25:39.179Z,69.40
2023-04-04T23:28:06.361Z,68.90
2023-04-04T23:30:33.530Z,68.70
2023-04-04T23:33:00.831Z,68.90
2023-04-04T23:35:28.032Z,69.20
2023-04-04T23:37:55.101Z,69.10
2023-04-04T23:40:22.188Z,69.30
2023-04-04T23:42:49.322Z,69.00
2023-04-04T23:45:16.404Z,69.50
2023-04-04T23:47:43.645Z,70.20
2023-04-04T23:50:10.930Z,70.10
2023-04-04T23:52:39.477Z,70.10
2023-04-04T23:55:07.015Z,70.40
2023-04-04T23:57:34.079Z,70.20
